sensor_id;sensor_type;location;lat;lon;timestamp;pressure;altitude;pressure_sealevel;temperature;humidity
3590;BME280;1809;48.470;9.226;2024-03-02T00:00:06;70330.72;;;7.19;100.00
3590;BME280;1809;48.470;9.226;2024-03-02T00:02:46;70655.88;;;7.08;100.00
3590;BME280;1809;48.470;9.226;2024-03-02T00:05:13;73006.25;;;6.95;100.00
3590;BME280;1809;48.470;9.226;2024-03-02T00:07:42;77052.03;;;6.86;100.00
3590;BME280;1809;48.470;9.226;2024-03-02T00:10:10;80422.78;;;6.75;100.00
3590;BME280;1809;48.470;9.226;2024-03-02T00:12:39;84144.22;;;6.72;100.00
3590;BME280;1809;48.470;9.226;2024-03-02T00:15:25;87869.97;;;6.69;100.00
3590;BME280;1809;48.470;9.226;2024-03-02T00:17:55;91600.84;;;6.67;100.00
3590;BME280;1809;48.470;9.226;2024-03-02T00:20:24;93624.50;;;6.57;100.00
3590;BME280;1809;48.470;9.226;2024-03-02T00:22:55;95314.34;;;6.51;100.00
3590;BME280;1809;48.470;9.226;2024-03-02T00:25:24;98375.56;;;6.52;100.00
3590;BME280;1809;48.470;9.226;2024-03-02T00:27:50;101462.13;;;6.66;100.00
3590;BME280;1809;48.470;9.226;2024-03-02T00:33:00;103496.78;;;6.60;100.00
3590;BME280;1809;48.470;9.226;2024-03-02T00:35:25;105224.38;;;6.74;100.00
3590;BME280;1809;48.470;9.226;2024-03-02T00:37:51;105556.69;;;6.69;100.00
3590;BME280;1809;48.470;9.226;2024-03-02T00:40:17;105219.19;;;6.71;100.00
3590;BME280;1809;48.470;9.226;2024-03-02T00:42:42;105240.00;;;6.83;100.00
3590;BME280;1809;48.470;9.226;2024-03-02T00:45:07;103850.41;;;6.68;100.00
3590;BME280;1809;48.470;9.226;2024-03-02T00:47:38;103493.38;;;6.58;100.00
3590;BME280;1809;48.470;9.226;2024-03-02T00:50:05;103818.72;;;6.49;100.00
3590;BME280;1809;48.470;9.226;2024-03-02T00:52:30;104145.72;;;6.41;100.00
3590;BME280;1809;48.470;9.226;2024-03-02T00:54:58;105499.22;;;6.35;100.00
3590;BME280;1809;48.470;9.226;2024-03-02T00:57:24;107191.28;;;6.28;100.00
3590;BME280;1809;48.470;9.226;2024-03-02T00:59:51;109264.56;;;6.43;100.00
3590;BME280;1809;48.470;9.226;2024-03-02T01:02:16;110638.81;;;6.48;100.00
3590;BME280;1809;48.470;9.226;2024-03-02T01:04:41;110273.75;;;6.35;100.00
3590;BME280;1809;48.470;9.226;2024-03-02T01:07:07;110947.22;;;6.30;100.00
3590;BME280;1809;48.470;9.226;2024-03-02T01:09:32;112314.59;;;6.31;100.00
3590;BME280;1809;48.470;9.226;2024-03-02T01:11:57;113006.88;;;6.36;100.00
3590;BME280;1809;48.470;9.226;2024-03-02T01:14:23;113333.47;;;6.28;100.00
3590;BME280;1809;48.470;9.226;2024-03-02T01:16:48;113652.47;;;6.16;100.00
3590;BME280;1809;48.470;9.226;2024-03-02T01:19:14;113634.59;;;6.07;100.00
3590;BME280;1809;48.470;9.226;2024-03-02T01:21:40;114655.25;;;6.05;100.00
3590;BME280;1809;48.470;9.226;2024-03-02T01:24:05;116018.78;;;6.03;100.00
3590;BME280;1809;48.470;9.226;2024-03-02T01:26:30;117030.31;;;5.96;100.00
3590;BME280;1809;48.470;9.226;2024-03-02T01:28:56;119124.56;;;6.18;100.00
3590;BME280;1809;48.470;9.226;2024-03-02T01:31:21;119463.63;;;6.17;100.00
3590;BME280;1809;48.470;9.226;2024-03-02T01:33:46;119448.81;;;6.09;100.00
3590;BME280;1809;48.470;9.226;2024-03-02T01:36:12;119427.06;;;5.98;100.00
3590;BME280;1809;48.470;9.226;2024-03-02T01:38:37;120100.09;;;5.92;100.00
3590;BME280;1809;48.470;9.226;2024-03-02T01:41:03;120767.13;;;5.84;100.00
3590;BME280;1809;48.470;9.226;2024-03-02T01:43:28;121445.16;;;5.81;100.00
3590;BME280;1809;48.470;9.226;2024-03-02T01:45:53;123205.91;;;6.06;100.00
3590;BME280;1809;48.470;9.226;2024-03-02T01:48:19;124258.88;;;6.18;100.00
3590;BME280;1809;48.470;9.226;2024-03-02T01:50:44;124258.88;;;6.18;100.00
3590;BME280;1809;48.470;9.226;2024-03-02T01:53:09;124289.78;;;6.33;100.00
3590;BME280;1809;48.470;9.226;2024-03-02T01:55:35;123257.97;;;6.31;100.00
3590;BME280;1809;48.470;9.226;2024-03-02T01:58:01;122564.88;;;6.27;100.00
3590;BME280;1809;48.470;9.226;2024-03-02T02:00:26;121890.19;;;6.32;100.00
3590;BME280;1809;48.470;9.226;2024-03-02T02:02:52;120844.16;;;6.23;100.00
3590;BME280;1809;48.470;9.226;2024-03-02T02:05:18;120135.91;;;6.11;100.00
3590;BME280;1809;48.470;9.226;2024-03-02T02:07:44;119776.97;;;6.02;100.00
3590;BME280;1809;48.470;9.226;2024-03-02T02:10:12;119771.03;;;5.99;100.00
3590;BME280;1809;48.470;9.226;2024-03-02T02:12:38;120097.13;;;5.91;100.00
3590;BME280;1809;48.470;9.226;2024-03-02T02:15:21;120793.16;;;5.97;100.00
3590;BME280;1809;48.470;9.226;2024-03-02T02:17:46;121473.34;;;5.95;100.00
3590;BME280;1809;48.470;9.226;2024-03-02T02:20:12;121461.28;;;5.89;100.00
3590;BME280;1809;48.470;9.226;2024-03-02T02:22:37;122150.66;;;5.91;100.00
3590;BME280;1809;48.470;9.226;2024-03-02T02:25:02;122139.47;;;5.86;100.00
3590;BME280;1809;48.470;9.226;2024-03-02T02:27:28;122836.06;;;5.92;100.00
3590;BME280;1809;48.470;9.226;2024-03-02T02:29:53;123913.28;;;6.17;100.00
3590;BME280;1809;48.470;9.226;2024-03-02T02:32:18;123234.47;;;6.20;100.00
3590;BME280;1809;48.470;9.226;2024-03-02T02:34:44;121843.78;;;6.09;100.00
3590;BME280;1809;48.470;9.226;2024-03-02T02:37:09;120100.09;;;5.92;100.00
3590;BME280;1809;48.470;9.226;2024-03-02T02:39:34;120811.16;;;6.06;100.00
3590;BME280;1809;48.470;9.226;2024-03-02T02:42:00;120495.00;;;6.19;100.00
3590;BME280;1809;48.470;9.226;2024-03-02T02:44:26;119830.50;;;6.29;100.00
3590;BME280;1809;48.470;9.226;2024-03-02T02:46:51;118111.31;;;6.25;100.00
3590;BME280;1809;48.470;9.226;2024-03-02T02:49:17;116366.22;;;6.06;100.00
3590;BME280;1809;48.470;9.226;2024-03-02T02:51:42;116370.06;;;6.08;100.00
3590;BME280;1809;48.470;9.226;2024-03-02T02:54:07;116373.94;;;6.10;100.00
3590;BME280;1809;48.470;9.226;2024-03-02T02:56:32;115680.00;;;6.05;100.00
3590;BME280;1809;48.470;9.226;2024-03-02T02:58:58;114283.50;;;5.88;100.00
3590;BME280;1809;48.470;9.226;2024-03-02T03:01:23;113572.53;;;5.73;100.00
3590;BME280;1809;48.470;9.226;2024-03-02T03:03:49;113202.28;;;5.58;100.00
3590;BME280;1809;48.470;9.226;2024-03-02T03:06:14;112477.31;;;5.34;100.00
3590;BME280;1809;48.470;9.226;2024-03-02T03:08:39;112107.66;;;5.19;100.00
3590;BME280;1809;48.470;9.226;2024-03-02T03:11:05;112416.84;;;5.02;100.00
3590;BME280;1809;48.470;9.226;2024-03-02T03:13:31;113074.97;;;4.89;100.00
3590;BME280;1809;48.470;9.226;2024-03-02T03:15:57;114080.34;;;4.80;100.00
3590;BME280;1809;48.470;9.226;2024-03-02T03:18:22;114723.97;;;4.60;100.00
3590;BME280;1809;48.470;9.226;2024-03-02T03:20:48;116087.16;;;4.60;100.00
3590;BME280;1809;48.470;9.226;2024-03-02T03:23:13;117077.88;;;4.43;100.00
3590;BME280;1809;48.470;9.226;2024-03-02T03:25:41;119142.47;;;4.53;100.00
3590;BME280;1809;48.470;9.226;2024-03-02T03:28:07;120150.03;;;4.45;100.00
3590;BME280;1809;48.470;9.226;2024-03-02T03:30:36;121514.00;;;4.44;100.00
3590;BME280;1809;48.470;9.226;2024-03-02T03:33:01;122185.53;;;4.39;100.00
3590;BME280;1809;48.470;9.226;2024-03-02T03:35:26;122861.13;;;4.35;100.00
3590;BME280;1809;48.470;9.226;2024-03-02T03:37:52;124951.47;;;4.55;100.00
3590;BME280;1809;48.470;9.226;2024-03-02T03:40:17;124924.50;;;4.42;100.00
3590;BME280;1809;48.470;9.226;2024-03-02T03:42:44;125612.03;;;4.44;100.00
3590;BME280;1809;48.470;9.226;2024-03-02T03:45:09;126655.13;;;4.53;100.00
3590;BME280;1809;48.470;9.226;2024-03-02T03:47:35;127359.00;;;4.62;100.00
3590;BME280;1809;48.470;9.226;2024-03-02T03:50:00;128405.31;;;4.72;100.00
3590;BME280;1809;48.470;9.226;2024-03-02T03:52:25;129123.94;;;4.88;100.00
3590;BME280;1809;48.470;9.226;2024-03-02T03:54:50;129130.38;;;4.91;100.00
3590;BME280;1809;48.470;9.226;2024-03-02T03:57:16;129132.47;;;4.92;100.00
3590;BME280;1809;48.470;9.226;2024-03-02T03:59:42;129147.50;;;4.99;100.00
3590;BME280;1809;48.470;9.226;2024-03-02T04:02:08;129511.38;;;5.09;100.00
3590;BME280;1809;48.470;9.226;2024-03-02T04:04:33;129924.97;;;5.42;100.00
3590;BME280;1809;48.470;9.226;2024-03-02T04:06:58;128206.75;;;5.40;100.00
3590;BME280;1809;48.470;9.226;2024-03-02T04:09:24;126841.28;;;5.42;100.00
3590;BME280;1809;48.470;9.226;2024-03-02T04:11:50;125854.00;;;5.61;100.00
3590;BME280;1809;48.470;9.226;2024-03-02T04:14:16;123807.53;;;5.65;100.00
3590;BME280;1809;48.470;9.226;2024-03-02T04:16:41;121765.03;;;5.70;100.00
3590;BME280;1809;48.470;9.226;2024-03-02T04:19:07;119390.44;;;5.79;100.00
3590;BME280;1809;48.470;9.226;2024-03-02T04:21:32;117004.13;;;5.82;100.00
3590;BME280;1809;48.470;9.226;2024-03-02T04:23:57;114273.06;;;5.83;100.00
3590;BME280;1809;48.470;9.226;2024-03-02T04:26:24;111889.88;;;5.86;100.00
3590;BME280;1809;48.470;9.226;2024-03-02T04:28:51;109502.59;;;5.86;100.00
3590;BME280;1809;48.470;9.226;2024-03-02T04:31:16;108147.22;;;5.90;100.00
3590;BME280;1809;48.470;9.226;2024-03-02T04:33:42;106785.13;;;5.91;100.00
3590;BME280;1809;48.470;9.226;2024-03-02T04:36:07;105078.63;;;5.89;100.00
3590;BME280;1809;48.470;9.226;2024-03-02T04:38:34;103712.56;;;5.86;100.00
3590;BME280;1809;48.470;9.226;2024-03-02T04:41:00;102683.16;;;5.81;100.00
3590;BME280;1809;48.470;9.226;2024-03-02T04:43:25;102348.00;;;5.84;100.00
3590;BME280;1809;48.470;9.226;2024-03-02T04:45:50;100983.25;;;5.82;100.00
3590;BME280;1809;48.470;9.226;2024-03-02T04:48:15;99290.69;;;5.86;100.00
3590;BME280;1809;48.470;9.226;2024-03-02T04:50:41;94890.06;;;5.97;100.00
3590;BME280;1809;48.470;9.226;2024-03-02T04:53:06;89124.63;;;5.98;100.00
3590;BME280;1809;48.470;9.226;2024-03-02T04:55:32;83367.16;;;5.99;100.00
3590;BME280;1809;48.470;9.226;2024-03-02T04:58:00;78974.84;;;6.02;100.00
3590;BME280;1809;48.470;9.226;2024-03-02T05:00:25;74917.28;;;5.99;100.00
3590;BME280;1809;48.470;9.226;2024-03-02T05:02:50;73215.28;;;5.87;100.00
3590;BME280;1809;48.470;9.226;2024-03-02T05:05:16;74902.56;;;5.87;100.00
3590;BME280;1809;48.470;9.226;2024-03-02T05:07:42;76917.66;;;5.78;100.00
3590;BME280;1809;48.470;9.226;2024-03-02T05:10:09;79282.97;;;5.79;100.00
3590;BME280;1809;48.470;9.226;2024-03-02T05:12:34;79950.34;;;5.72;100.00
3590;BME280;1809;48.470;9.226;2024-03-02T05:15:21;82985.78;;;5.67;100.00
3590;BME280;1809;48.470;9.226;2024-03-02T05:17:47;85347.84;;;5.62;100.00
3590;BME280;1809;48.470;9.226;2024-03-02T05:20:12;87383.34;;;5.65;100.00
3590;BME280;1809;48.470;9.226;2024-03-02T05:22:38;87719.13;;;5.63;100.00
3590;BME280;1809;48.470;9.226;2024-03-02T05:25:05;88391.44;;;5.60;100.00
3590;BME280;1809;48.470;9.226;2024-03-02T05:27:31;89745.06;;;5.59;100.00
3590;BME280;1809;48.470;9.226;2024-03-02T05:29:58;91434.41;;;5.55;100.00
3590;BME280;1809;48.470;9.226;2024-03-02T05:32:23;92104.13;;;5.50;100.00
3590;BME280;1809;48.470;9.226;2024-03-02T05:34:48;93465.88;;;5.53;100.00
3590;BME280;1809;48.470;9.226;2024-03-02T05:37:16;94476.53;;;5.49;100.00
3590;BME280;1809;48.470;9.226;2024-03-02T05:39:41;95495.22;;;5.49;100.00
3590;BME280;1809;48.470;9.226;2024-03-02T05:42:08;96173.19;;;5.49;100.00
3590;BME280;1809;48.470;9.226;2024-03-02T05:44:34;96852.91;;;5.49;100.00
3590;BME280;1809;48.470;9.226;2024-03-02T05:46:59;97190.78;;;5.48;100.00
3590;BME280;1809;48.470;9.226;2024-03-02T05:49:25;97193.19;;;5.50;100.00
3590;BME280;1809;48.470;9.226;2024-03-02T05:51:50;96177.16;;;5.51;100.00
3590;BME280;1809;48.470;9.226;2024-03-02T05:54:15;95157.47;;;5.50;100.00
3590;BME280;1809;48.470;9.226;2024-03-02T05:56:40;94478.88;;;5.50;100.00
3590;BME280;1809;48.470;9.226;2024-03-02T05:59:06;93457.41;;;5.48;100.00
3590;BME280;1809;48.470;9.226;2024-03-02T06:01:47;91090.97;;;5.52;100.00
3590;BME280;1809;48.470;9.226;2024-03-02T06:04:13;88718.47;;;5.52;100.00
3590;BME280;1809;48.470;9.226;2024-03-02T06:06:39;86343.41;;;5.48;100.00
3590;BME280;1809;48.470;9.226;2024-03-02T06:09:06;85334.53;;;5.53;100.00
3590;BME280;1809;48.470;9.226;2024-03-02T06:11:38;83641.69;;;5.52;100.00
3590;BME280;1809;48.470;9.226;2024-03-02T06:14:04;81276.41;;;5.53;100.00
3590;BME280;1809;48.470;9.226;2024-03-02T06:16:30;78235.94;;;5.53;100.00
3590;BME280;1809;48.470;9.226;2024-03-02T06:18:56;75205.59;;;5.59;100.00
3590;BME280;1809;48.470;9.226;2024-03-02T06:21:23;70824.91;;;5.61;100.00
3590;BME280;1809;48.470;9.226;2024-03-02T06:23:49;67456.03;;;5.61;100.00
3590;BME280;1809;48.470;9.226;2024-03-02T06:26:14;64434.78;;;5.68;100.00
3590;BME280;1809;48.470;9.226;2024-03-02T06:28:39;60399.38;;;5.67;100.00
3590;BME280;1809;48.470;9.226;2024-03-02T06:31:05;58051.03;;;5.70;100.00
3590;BME280;1809;48.470;9.226;2024-03-02T06:33:30;57041.03;;;5.67;100.00
3590;BME280;1809;48.470;9.226;2024-03-02T06:35:55;55373.97;;;5.79;100.00
3590;BME280;1809;48.470;9.226;2024-03-02T06:38:21;50683.78;;;5.84;100.00
3590;BME280;1809;48.470;9.226;2024-03-02T06:40:46;44334.81;;;6.02;100.00
3590;BME280;1809;48.470;9.226;2024-03-02T06:43:11;33317.06;;;6.13;100.00
3590;BME280;1809;48.470;9.226;2024-03-02T06:45:37;26654.56;;;6.18;100.00
3590;BME280;1809;48.470;9.226;2024-03-02T06:48:02;19340.69;;;6.26;100.00
3590;BME280;1809;48.470;9.226;2024-03-02T06:50:27;15357.94;;;6.33;100.00
3590;BME280;1809;48.470;9.226;2024-03-02T06:52:53;11710.19;;;6.38;100.00
3590;BME280;1809;48.470;9.226;2024-03-02T06:55:19;12042.28;;;6.41;100.00
3590;BME280;1809;48.470;9.226;2024-03-02T06:57:45;13369.84;;;6.46;100.00
3590;BME280;1809;48.470;9.226;2024-03-02T07:00:10;14034.78;;;6.53;100.00
3590;BME280;1809;48.470;9.226;2024-03-02T07:02:36;15027.91;;;6.41;100.00
3590;BME280;1809;48.470;9.226;2024-03-02T07:05:02;19015.34;;;6.49;100.00
3590;BME280;1809;48.470;9.226;2024-03-02T07:07:27;19346.16;;;6.44;100.00
3590;BME280;1809;48.470;9.226;2024-03-02T07:09:53;21342.63;;;6.50;100.00
3590;BME280;1809;48.470;9.226;2024-03-02T07:12:18;23011.53;;;6.66;100.00
3590;BME280;1809;48.470;9.226;2024-03-02T07:14:43;23013.34;;;6.71;100.00
3590;BME280;1809;48.470;9.226;2024-03-02T07:17:41;20685.72;;;6.75;100.00
3590;BME280;1809;48.470;9.226;2024-03-02T07:20:06;19357.72;;;6.83;100.00
3590;BME280;1809;48.470;9.226;2024-03-02T07:22:32;16702.59;;;6.99;100.00
3590;BME280;1809;48.470;9.226;2024-03-02T07:24:58;15040.72;;;6.97;100.00
3590;BME280;1809;48.470;9.226;2024-03-02T07:27:23;11058.22;;;7.05;100.00
3590;BME280;1809;48.470;9.226;2024-03-02T07:29:48;7078.81;;;7.07;100.00
3590;BME280;1809;48.470;9.226;2024-03-02T07:32:14;125.81;;;7.19;100.00
3590;BME280;1809;48.470;9.226;2024-03-02T07:34:40;-8447.53;;;7.14;100.00
3590;BME280;1809;48.470;9.226;2024-03-02T07:37:05;-6922.41;;;7.01;100.00
3590;BME280;1809;48.470;9.226;2024-03-02T07:39:31;-3179.06;;;6.96;100.00
3590;BME280;1809;48.470;9.226;2024-03-02T07:41:56;4427.44;;;6.90;100.00
3590;BME280;1809;48.470;9.226;2024-03-02T07:44:21;11388.00;;;6.93;100.00
3590;BME280;1809;48.470;9.226;2024-03-02T07:46:48;13381.03;;;7.01;100.00
3590;BME280;1809;48.470;9.226;2024-03-02T07:49:16;13714.88;;;7.10;100.00
3590;BME280;1809;48.470;9.226;2024-03-02T07:51:42;11390.59;;;7.08;100.00
3590;BME280;1809;48.470;9.226;2024-03-02T07:54:08;13383.69;;;7.14;100.00
3590;BME280;1809;48.470;9.226;2024-03-02T07:56:34;14049.19;;;7.20;100.00
3590;BME280;1809;48.470;9.226;2024-03-02T07:58:59;11726.66;;;7.32;100.00
3590;BME280;1809;48.470;9.226;2024-03-02T08:01:32;9404.25;;;7.39;100.00
3590;BME280;1809;48.470;9.226;2024-03-02T08:03:59;6749.81;;;7.32;100.00
3590;BME280;1809;48.470;9.226;2024-03-02T08:06:27;3767.75;;;7.41;100.00
3590;BME280;1809;48.470;9.226;2024-03-02T08:08:59;-2190.25;;;7.44;100.00
3590;BME280;1809;48.470;9.226;2024-03-02T08:11:25;-6313.31;;;7.63;100.00
3590;BME280;1809;48.470;9.226;2024-03-02T08:13:52;-13916.34;;;7.85;100.00
3590;BME280;1809;48.470;9.226;2024-03-02T08:16:20;-16390.88;;;7.96;100.00
3590;BME280;1809;48.470;9.226;2024-03-02T08:18:49;-16393.41;;;8.05;100.00
3590;BME280;1809;48.470;9.226;2024-03-02T08:21:14;-16393.41;;;8.05;100.00
3590;BME280;1809;48.470;9.226;2024-03-02T08:23:40;-16395.25;;;8.11;100.00
3590;BME280;1809;48.470;9.226;2024-03-02T08:26:11;-16398.75;;;8.24;100.00
3590;BME280;1809;48.470;9.226;2024-03-02T08:28:36;-16402.69;;;8.38;100.00
3590;BME280;1809;48.470;9.226;2024-03-02T08:31:03;-16409.16;;;8.61;100.00
3590;BME280;1809;48.470;9.226;2024-03-02T08:33:28;-16412.94;;;8.75;100.00
3590;BME280;1809;48.470;9.226;2024-03-02T08:35:54;-16412.13;;;8.72;100.00
3590;BME280;1809;48.470;9.226;2024-03-02T08:38:19;-16413.38;;;8.77;100.00
3590;BME280;1809;48.470;9.226;2024-03-02T08:40:44;-16413.66;;;8.78;100.00
3590;BME280;1809;48.470;9.226;2024-03-02T08:43:10;-16415.63;;;8.85;100.00
3590;BME280;1809;48.470;9.226;2024-03-02T08:45:35;-16418.16;;;8.94;100.00
3590;BME280;1809;48.470;9.226;2024-03-02T08:48:01;-16420.97;;;9.04;100.00
3590;BME280;1809;48.470;9.226;2024-03-02T08:50:26;-16425.47;;;9.20;100.00
3590;BME280;1809;48.470;9.226;2024-03-02T08:52:51;-16429.41;;;9.34;100.00
3590;BME280;1809;48.470;9.226;2024-03-02T08:55:17;-16432.78;;;9.46;100.00
3590;BME280;1809;48.470;9.226;2024-03-02T08:57:42;-16437.53;;;9.63;100.00
3590;BME280;1809;48.470;9.226;2024-03-02T09:00:08;-16442.59;;;9.82;100.00
3590;BME280;1809;48.470;9.226;2024-03-02T09:02:33;-16446.97;;;9.97;100.00
3590;BME280;1809;48.470;9.226;2024-03-02T09:04:59;-16449.91;;;10.08;100.00
3590;BME280;1809;48.470;9.226;2024-03-02T09:07:24;-16455.53;;;10.28;100.00
3590;BME280;1809;48.470;9.226;2024-03-02T09:09:50;-16457.22;;;10.34;100.00
3590;BME280;1809;48.470;9.226;2024-03-02T09:12:15;-16464.25;;;10.59;100.00
3590;BME280;1809;48.470;9.226;2024-03-02T09:14:41;-16470.69;;;10.83;100.00
3590;BME280;1809;48.470;9.226;2024-03-02T09:17:06;-16478.56;;;11.11;100.00
3590;BME280;1809;48.470;9.226;2024-03-02T09:19:33;-16477.44;;;11.07;100.00
3590;BME280;1809;48.470;9.226;2024-03-02T09:21:58;-16478.84;;;11.12;100.00
3590;BME280;1809;48.470;9.226;2024-03-02T09:24:24;-16481.66;;;11.22;100.00
3590;BME280;1809;48.470;9.226;2024-03-02T09:26:49;-16487.41;;;11.43;100.00
3590;BME280;1809;48.470;9.226;2024-03-02T09:29:15;-16483.75;;;11.29;100.00
3590;BME280;1809;48.470;9.226;2024-03-02T09:31:41;-16483.91;;;11.30;100.00
3590;BME280;1809;48.470;9.226;2024-03-02T09:34:06;-16489.50;;;11.50;100.00
3590;BME280;1809;48.470;9.226;2024-03-02T09:36:32;-16494.00;;;11.66;100.00
3590;BME280;1809;48.470;9.226;2024-03-02T09:38:57;-16494.28;;;11.67;100.00
3590;BME280;1809;48.470;9.226;2024-03-02T09:41:23;-16494.84;;;11.69;100.00
3590;BME280;1809;48.470;9.226;2024-03-02T09:43:48;-16498.50;;;11.82;100.00
3590;BME280;1809;48.470;9.226;2024-03-02T09:46:15;-16498.66;;;11.83;100.00
3590;BME280;1809;48.470;9.226;2024-03-02T09:48:40;-16500.34;;;11.89;100.00
3590;BME280;1809;48.470;9.226;2024-03-02T09:51:06;-16501.31;;;11.93;100.00
3590;BME280;1809;48.470;9.226;2024-03-02T09:53:32;-16504.13;;;12.03;100.00
3590;BME280;1809;48.470;9.226;2024-03-02T09:56:01;-16507.50;;;12.15;100.00
3590;BME280;1809;48.470;9.226;2024-03-02T09:58:26;-16515.34;;;12.43;100.00
3590;BME280;1809;48.470;9.226;2024-03-02T10:00:52;-16514.09;;;12.38;100.00
3590;BME280;1809;48.470;9.226;2024-03-02T10:03:18;-16523.50;;;12.72;100.00
3590;BME280;1809;48.470;9.226;2024-03-02T10:05:44;-16525.88;;;12.81;100.00
3590;BME280;1809;48.470;9.226;2024-03-02T10:08:10;-16527.13;;;12.85;100.00
3590;BME280;1809;48.470;9.226;2024-03-02T10:10:36;-16530.78;;;12.99;100.00
3590;BME280;1809;48.470;9.226;2024-03-02T10:13:05;-16539.47;;;13.30;100.00
3590;BME280;1809;48.470;9.226;2024-03-02T10:15:31;-16544.25;;;13.47;100.00
3590;BME280;1809;48.470;9.226;2024-03-02T10:17:56;-16549.16;;;13.65;100.00
3590;BME280;1809;48.470;9.226;2024-03-02T10:20:24;-16546.34;;;13.55;100.00
3590;BME280;1809;48.470;9.226;2024-03-02T10:22:49;-16545.38;;;13.51;100.00
3590;BME280;1809;48.470;9.226;2024-03-02T10:25:31;-16550.56;;;13.70;100.00
3590;BME280;1809;48.470;9.226;2024-03-02T10:27:58;-16552.53;;;13.77;100.00
3590;BME280;1809;48.470;9.226;2024-03-02T10:30:23;-16555.47;;;13.87;100.00
3590;BME280;1809;48.470;9.226;2024-03-02T10:32:49;-16552.09;;;13.75;100.00
3590;BME280;1809;48.470;9.226;2024-03-02T10:35:16;-16558.13;;;13.97;100.00
3590;BME280;1809;48.470;9.226;2024-03-02T10:37:41;-16561.66;;;14.10;100.00
3590;BME280;1809;48.470;9.226;2024-03-02T10:40:10;-16561.91;;;14.11;100.00
3590;BME280;1809;48.470;9.226;2024-03-02T10:42:37;-16568.66;;;14.35;100.00
3590;BME280;1809;48.470;9.226;2024-03-02T10:45:06;-16559.97;;;14.04;100.00
3590;BME280;1809;48.470;9.226;2024-03-02T10:47:32;-16561.09;;;14.08;100.00
3590;BME280;1809;48.470;9.226;2024-03-02T10:49:59;-16562.50;;;14.13;100.00
3590;BME280;1809;48.470;9.226;2024-03-02T10:52:26;-16560.38;;;14.05;100.00
3590;BME280;1809;48.470;9.226;2024-03-02T10:54:52;-16566.41;;;14.27;100.00
3590;BME280;1809;48.470;9.226;2024-03-02T10:57:21;-16563.47;;;14.16;100.00
3590;BME280;1809;48.470;9.226;2024-03-02T10:59:56;-16556.59;;;13.91;100.00
3590;BME280;1809;48.470;9.226;2024-03-02T11:02:23;-16563.31;;;14.16;100.00
3590;BME280;1809;48.470;9.226;2024-03-02T11:04:54;-16568.38;;;14.34;100.00
3590;BME280;1809;48.470;9.226;2024-03-02T11:07:21;-16573.97;;;14.54;100.00
3590;BME280;1809;48.470;9.226;2024-03-02T11:10:08;-16577.63;;;14.67;100.00
3590;BME280;1809;48.470;9.226;2024-03-02T11:12:39;-16577.63;;;14.67;100.00
3590;BME280;1809;48.470;9.226;2024-03-02T11:15:16;-16578.47;;;14.70;100.00
3590;BME280;1809;48.470;9.226;2024-03-02T11:17:43;-16578.91;;;14.72;100.00
3590;BME280;1809;48.470;9.226;2024-03-02T11:20:09;-16578.19;;;14.69;100.00
3590;BME280;1809;48.470;9.226;2024-03-02T11:22:36;-16580.84;;;14.79;100.00
3590;BME280;1809;48.470;9.226;2024-03-02T11:25:01;-16582.41;;;14.84;100.00
3590;BME280;1809;48.470;9.226;2024-03-02T11:28:00;-16586.88;;;15.00;100.00
3590;BME280;1809;48.470;9.226;2024-03-02T11:33:00;-16585.63;;;14.96;100.00
3590;BME280;1809;48.470;9.226;2024-03-02T11:35:30;-16590.09;;;15.12;100.00
3590;BME280;1809;48.470;9.226;2024-03-02T11:37:56;-16593.06;;;15.23;100.00
3590;BME280;1809;48.470;9.226;2024-03-02T11:40:27;-16596.41;;;15.35;100.00
3590;BME280;1809;48.470;9.226;2024-03-02T11:42:53;-16587.59;;;15.03;100.00
3590;BME280;1809;48.470;9.226;2024-03-02T11:45:23;-16582.81;;;14.86;100.00
3590;BME280;1809;48.470;9.226;2024-03-02T11:47:53;-16589.97;;;15.12;100.00
3590;BME280;1809;48.470;9.226;2024-03-02T11:50:47;-16589.41;;;15.10;100.00
3590;BME280;1809;48.470;9.226;2024-03-02T11:53:15;-16584.78;;;14.93;100.00
3590;BME280;1809;48.470;9.226;2024-03-02T11:55:40;-16588.84;;;15.07;100.00
3590;BME280;1809;48.470;9.226;2024-03-02T11:58:06;-16589.69;;;15.11;100.00
3590;BME280;1809;48.470;9.226;2024-03-02T12:00:32;-16594.03;;;15.26;100.00
3590;BME280;1809;48.470;9.226;2024-03-02T12:05:30;-16593.63;;;15.25;100.00
3590;BME280;1809;48.470;9.226;2024-03-02T12:07:59;-16596.41;;;15.35;100.00
3590;BME280;1809;48.470;9.226;2024-03-02T12:10:25;-16591.09;;;15.16;100.00
3590;BME280;1809;48.470;9.226;2024-03-02T12:13:02;-16596.97;;;15.37;100.00
3590;BME280;1809;48.470;9.226;2024-03-02T12:15:34;-16594.72;;;15.29;100.00
3590;BME280;1809;48.470;9.226;2024-03-02T12:18:02;-16598.38;;;15.42;100.00
3590;BME280;1809;48.470;9.226;2024-03-02T12:20:29;-16597.81;;;15.40;100.00
3590;BME280;1809;48.470;9.226;2024-03-02T12:22:57;-16595.00;;;15.30;100.00
3590;BME280;1809;48.470;9.226;2024-03-02T12:25:24;-16591.66;;;15.18;100.00
3590;BME280;1809;48.470;9.226;2024-03-02T12:27:57;-16595.00;;;15.30;100.00
3590;BME280;1809;48.470;9.226;2024-03-02T12:30:23;-16595.16;;;15.30;100.00
3590;BME280;1809;48.470;9.226;2024-03-02T12:32:49;-16603.84;;;15.62;100.00
3590;BME280;1809;48.470;9.226;2024-03-02T12:35:15;-16593.88;;;15.26;100.00
3590;BME280;1809;48.470;9.226;2024-03-02T12:37:44;-16593.06;;;15.23;100.00
3590;BME280;1809;48.470;9.226;2024-03-02T12:40:11;-16592.91;;;15.22;100.00
3590;BME280;1809;48.470;9.226;2024-03-02T12:42:37;-16598.78;;;15.43;100.00
3590;BME280;1809;48.470;9.226;2024-03-02T12:45:03;-16597.25;;;15.38;100.00
3590;BME280;1809;48.470;9.226;2024-03-02T12:47:29;-16601.75;;;15.54;100.00
3590;BME280;1809;48.470;9.226;2024-03-02T12:49:55;-16599.78;;;15.47;100.00
3590;BME280;1809;48.470;9.226;2024-03-02T12:52:21;-16599.50;;;15.46;100.00
3590;BME280;1809;48.470;9.226;2024-03-02T12:54:46;-16597.53;;;15.39;100.00
3590;BME280;1809;48.470;9.226;2024-03-02T12:57:17;-16595.72;;;15.32;100.00
3590;BME280;1809;48.470;9.226;2024-03-02T12:59:45;-16595.84;;;15.33;100.00
3590;BME280;1809;48.470;9.226;2024-03-02T13:02:17;-16599.22;;;15.45;100.00
3590;BME280;1809;48.470;9.226;2024-03-02T13:04:43;-16595.44;;;15.31;100.00
3590;BME280;1809;48.470;9.226;2024-03-02T13:07:08;-16595.84;;;15.33;100.00
3590;BME280;1809;48.470;9.226;2024-03-02T13:09:33;-16596.00;;;15.33;100.00
3590;BME280;1809;48.470;9.226;2024-03-02T13:12:00;-16594.16;;;15.27;100.00
3590;BME280;1809;48.470;9.226;2024-03-02T13:14:25;-16596.13;;;15.34;100.00